createdAt,value
2018-10-02T00:00:11.400Z,7.10
2018-10-02T00:01:12.085Z,7.06
2018-10-02T00:02:14.359Z,7.06
2018-10-02T00:03:13.402Z,7.07
2018-10-02T00:04:12.453Z,7.08
2018-10-02T00:05:12.578Z,7.12
2018-10-02T00:06:12.929Z,7.15
2018-10-02T00:07:12.764Z,7.17
2018-10-02T00:08:14.393Z,7.17
2018-10-02T00:09:12.881Z,7.19
2018-10-02T00:10:13.722Z,7.21
2018-10-02T00:11:14.023Z,7.26
2018-10-02T00:12:14.251Z,7.29
2018-10-02T00:13:14.739Z,7.30
2018-10-02T00:14:15.145Z,7.32
2018-10-02T00:15:15.196Z,7.31
2018-10-02T00:16:19.331Z,7.31
2018-10-02T00:17:19.047Z,7.31
2018-10-02T00:18:19.766Z,7.30
2018-10-02T00:19:20.120Z,7.30
2018-10-02T00:20:20.292Z,7.30
2018-10-02T00:21:20.562Z,7.29
2018-10-02T00:22:20.971Z,7.29
2018-10-02T00:23:20.717Z,7.30
2018-10-02T00:24:21.588Z,7.31
2018-10-02T00:25:21.996Z,7.33
2018-10-02T00:26:21.731Z,7.32
2018-10-02T00:27:22.530Z,7.30
2018-10-02T00:28:22.938Z,7.29
2018-10-02T00:29:22.192Z,7.27
2018-10-02T00:30:23.149Z,7.25
2018-10-02T00:31:23.659Z,7.22
2018-10-02T00:32:23.335Z,7.19
2018-10-02T00:33:24.306Z,7.16
2018-10-02T00:34:24.150Z,7.13
2018-10-02T00:35:24.566Z,7.11
2018-10-02T00:36:25.088Z,7.10
2018-10-02T00:37:25.064Z,7.05
2018-10-02T00:38:24.766Z,7.00
2018-10-02T00:39:25.636Z,6.96
2018-10-02T00:40:25.916Z,6.90
2018-10-02T00:41:25.487Z,6.84
2018-10-02T00:42:26.402Z,6.79
2018-10-02T00:43:26.769Z,6.74
2018-10-02T00:44:26.218Z,6.71
2018-10-02T00:45:27.600Z,6.65
2018-10-02T00:46:28.004Z,6.60
2018-10-02T00:47:27.446Z,6.54
2018-10-02T00:48:28.673Z,6.53
2018-10-02T00:49:28.924Z,6.52
2018-10-02T00:50:28.493Z,6.53
2018-10-02T00:51:29.564Z,6.53
2018-10-02T00:52:29.296Z,6.54
2018-10-02T00:53:28.841Z,6.52
2018-10-02T00:54:29.707Z,6.50
2018-10-02T00:55:30.075Z,6.50
2018-10-02T00:56:29.592Z,6.47
2018-10-02T00:57:30.482Z,6.45
2018-10-02T00:58:30.620Z,6.44
2018-10-02T00:59:30.048Z,6.39
2018-10-02T01:00:31.383Z,6.36
2018-10-02T01:01:31.912Z,6.35
2018-10-02T01:02:30.942Z,6.32
2018-10-02T01:03:32.250Z,6.33
2018-10-02T01:05:31.865Z,6.35
2018-10-02T01:06:32.776Z,6.32
2018-10-02T01:07:33.271Z,6.31
2018-10-02T01:08:32.297Z,6.30
2018-10-02T01:09:33.730Z,6.29
2018-10-02T01:11:33.575Z,6.29
2018-10-02T01:12:34.489Z,6.28
2018-10-02T01:13:35.096Z,6.30
2018-10-02T01:14:34.329Z,6.30
2018-10-02T01:15:35.350Z,6.30
2018-10-02T01:16:35.437Z,6.30
2018-10-02T01:17:34.995Z,6.30
2018-10-02T01:18:35.858Z,6.32
2018-10-02T01:19:36.376Z,6.31
2018-10-02T01:20:35.663Z,6.34
2018-10-02T01:21:36.651Z,6.33
2018-10-02T01:22:36.667Z,6.32
2018-10-02T01:23:35.930Z,6.31
2018-10-02T01:24:36.853Z,6.32
2018-10-02T01:25:37.203Z,6.32
2018-10-02T01:26:36.972Z,6.33
2018-10-02T01:27:38.254Z,6.38
2018-10-02T01:28:38.135Z,6.39
2018-10-02T01:29:37.721Z,6.40
2018-10-02T01:30:38.752Z,6.41
2018-10-02T01:31:38.600Z,6.42
2018-10-02T01:32:38.218Z,6.45
2018-10-02T01:33:39.126Z,6.46
2018-10-02T01:34:39.605Z,6.46
2018-10-02T01:35:39.449Z,6.45
2018-10-02T01:36:40.363Z,6.44
2018-10-02T01:37:40.759Z,6.44
2018-10-02T01:38:40.072Z,6.43
2018-10-02T01:39:41.453Z,6.42
2018-10-02T01:40:41.838Z,6.43
2018-10-02T01:41:41.492Z,6.43
2018-10-02T01:42:42.308Z,6.45
2018-10-02T01:43:42.590Z,6.47
2018-10-02T01:44:42.273Z,6.48
2018-10-02T01:45:43.223Z,6.47
2018-10-02T01:46:43.491Z,6.49
2018-10-02T01:47:42.897Z,6.50
2018-10-02T01:48:44.197Z,6.52
2018-10-02T01:49:44.783Z,6.54
2018-10-02T01:50:43.567Z,6.56
2018-10-02T01:52:45.132Z,6.56
2018-10-02T01:53:44.488Z,6.51
2018-10-02T01:54:45.242Z,6.50
2018-10-02T01:55:45.796Z,6.48
2018-10-02T01:56:44.699Z,6.48
2018-10-02T01:57:45.915Z,6.48
2018-10-02T01:58:46.281Z,6.48
2018-10-02T01:59:45.860Z,6.48
2018-10-02T02:00:46.641Z,6.47
2018-10-02T02:01:46.929Z,6.46
2018-10-02T02:02:46.491Z,6.45
2018-10-02T02:03:47.655Z,6.46
2018-10-02T02:04:48.163Z,6.46
2018-10-02T02:05:47.052Z,6.47
2018-10-02T02:06:48.232Z,6.47
2018-10-02T02:07:48.940Z,6.46
2018-10-02T02:08:47.872Z,6.46
2018-10-02T02:09:49.038Z,6.45
2018-10-02T02:10:49.472Z,6.45
2018-10-02T02:11:49.119Z,6.44
2018-10-02T02:12:49.990Z,6.41
2018-10-02T02:13:50.251Z,6.39
2018-10-02T02:14:49.919Z,6.39
2018-10-02T02:15:50.647Z,6.39
2018-10-02T02:16:50.940Z,6.38
2018-10-02T02:17:50.710Z,6.35
2018-10-02T02:18:51.437Z,6.33
2018-10-02T02:19:51.673Z,6.31
2018-10-02T02:20:51.336Z,6.31
2018-10-02T02:21:52.135Z,6.28
2018-10-02T02:22:52.711Z,6.25
2018-10-02T02:23:51.862Z,6.23
2018-10-02T02:24:52.594Z,6.17
2018-10-02T02:25:53.002Z,6.12
2018-10-02T02:26:52.682Z,6.08
2018-10-02T02:27:53.607Z,6.03
2018-10-02T02:28:53.957Z,5.97
2018-10-02T02:29:53.590Z,5.91
2018-10-02T02:30:54.362Z,5.85
2018-10-02T02:31:54.987Z,5.81
2018-10-02T02:32:54.150Z,5.75
2018-10-02T02:33:54.878Z,5.71
2018-10-02T02:34:55.119Z,5.67
2018-10-02T02:35:54.586Z,5.61
2018-10-02T02:36:55.885Z,5.57
2018-10-02T02:37:55.949Z,5.52
2018-10-02T02:38:55.464Z,5.48
2018-10-02T02:39:56.139Z,5.43
2018-10-02T02:40:56.335Z,5.39
2018-10-02T02:41:55.719Z,5.35
2018-10-02T02:42:57.023Z,5.31
2018-10-02T02:43:57.037Z,5.26
2018-10-02T02:44:56.396Z,5.21
2018-10-02T02:45:57.504Z,5.17
2018-10-02T02:46:57.537Z,5.14
2018-10-02T02:47:57.071Z,5.11
2018-10-02T02:48:58.282Z,5.07
2018-10-02T02:49:58.609Z,5.04
2018-10-02T02:50:58.187Z,5.00
2018-10-02T02:51:59.095Z,4.97
2018-10-02T02:52:59.159Z,4.95
2018-10-02T02:53:58.615Z,4.93
2018-10-02T02:54:59.937Z,4.90
2018-10-02T02:56:00.242Z,4.89
2018-10-02T02:56:59.580Z,4.91
2018-10-02T02:58:00.941Z,4.91
2018-10-02T02:59:01.129Z,4.90
2018-10-02T03:00:00.441Z,4.86
2018-10-02T03:01:02.101Z,4.85
2018-10-02T03:02:01.738Z,4.83
2018-10-02T03:03:01.291Z,4.82
2018-10-02T03:04:02.106Z,4.79
2018-10-02T03:05:02.286Z,4.78
2018-10-02T03:06:02.025Z,4.76
2018-10-02T03:08:02.772Z,4.76
2018-10-02T03:09:02.456Z,4.78
2018-10-02T03:10:03.357Z,4.77
2018-10-02T03:11:03.636Z,4.76
2018-10-02T03:12:03.914Z,4.74
2018-10-02T03:13:04.434Z,4.73
2018-10-02T03:14:04.359Z,4.69
2018-10-02T03:15:04.501Z,4.68
2018-10-02T03:16:04.987Z,4.66
2018-10-02T03:17:05.061Z,4.67
2018-10-02T03:18:05.038Z,4.68
2018-10-02T03:19:05.623Z,4.68
2018-10-02T03:21:05.508Z,4.68
2018-10-02T03:22:06.152Z,4.68
2018-10-02T03:23:06.277Z,4.68
2018-10-02T03:24:06.686Z,4.68
2018-10-02T03:25:07.243Z,4.66
2018-10-02T03:26:07.066Z,4.67
2018-10-02T03:27:07.454Z,4.66
2018-10-02T03:28:08.010Z,4.65
2018-10-02T03:29:07.985Z,4.64
2018-10-02T03:30:08.205Z,4.64
2018-10-02T03:31:08.788Z,4.63
2018-10-02T03:32:08.810Z,4.63
2018-10-02T03:33:08.999Z,4.63
2018-10-02T03:34:09.461Z,4.64
2018-10-02T03:35:09.861Z,4.66
2018-10-02T03:36:09.939Z,4.65
2018-10-02T03:37:10.212Z,4.65
2018-10-02T03:38:10.648Z,4.65
2018-10-02T03:39:10.716Z,4.66
2018-10-02T03:40:11.138Z,4.68
2018-10-02T03:41:11.297Z,4.71
2018-10-02T03:42:11.516Z,4.72
2018-10-02T03:43:11.828Z,4.76
2018-10-02T03:44:12.102Z,4.78
2018-10-02T03:45:13.403Z,4.79
2018-10-02T03:46:12.750Z,4.82
2018-10-02T03:47:12.930Z,4.84
2018-10-02T03:48:13.601Z,4.84
2018-10-02T03:49:13.420Z,4.85
2018-10-02T03:50:13.782Z,4.87
2018-10-02T03:51:13.857Z,4.86
2018-10-02T03:52:14.383Z,4.86
2018-10-02T03:53:14.220Z,4.86
2018-10-02T03:54:14.390Z,4.83
2018-10-02T03:55:14.833Z,4.80
2018-10-02T03:56:15.268Z,4.79
2018-10-02T03:57:15.614Z,4.77
2018-10-02T03:58:15.826Z,4.74
2018-10-02T03:59:16.224Z,4.72
2018-10-02T04:00:16.489Z,4.70
2018-10-02T04:01:16.699Z,4.70
2018-10-02T04:02:16.987Z,4.70
2018-10-02T04:03:17.133Z,4.69
2018-10-02T04:04:17.481Z,4.68
2018-10-02T04:05:17.160Z,4.68
2018-10-02T04:06:17.741Z,4.69
2018-10-02T04:07:18.339Z,4.72
2018-10-02T04:08:18.211Z,4.72
2018-10-02T04:09:18.595Z,4.74
2018-10-02T04:10:18.958Z,4.77
2018-10-02T04:11:18.708Z,4.79
2018-10-02T04:12:19.598Z,4.80
2018-10-02T04:13:19.970Z,4.82
2018-10-02T04:14:19.680Z,4.83
2018-10-02T04:15:20.600Z,4.84
2018-10-02T04:16:20.958Z,4.85
2018-10-02T04:17:20.775Z,4.86
2018-10-02T04:18:21.793Z,4.89
2018-10-02T04:19:21.747Z,4.92
2018-10-02T04:20:21.579Z,4.95
2018-10-02T04:21:22.574Z,4.98
2018-10-02T04:22:22.505Z,5.02
2018-10-02T04:23:22.247Z,5.05
2018-10-02T04:24:23.409Z,5.06
2018-10-02T04:25:23.426Z,5.07
2018-10-02T04:26:22.875Z,5.08
2018-10-02T04:27:23.871Z,5.11
2018-10-02T04:28:24.383Z,5.12
2018-10-02T04:29:23.784Z,5.12
2018-10-02T04:30:25.189Z,5.13
2018-10-02T04:31:25.219Z,5.14
2018-10-02T04:32:24.623Z,5.15
2018-10-02T04:33:26.074Z,5.18
2018-10-02T04:34:26.489Z,5.19
2018-10-02T04:35:25.834Z,5.19
2018-10-02T04:36:27.234Z,5.19
2018-10-02T04:37:27.231Z,5.21
2018-10-02T04:38:26.690Z,5.23
2018-10-02T04:39:27.972Z,5.25
2018-10-02T04:40:28.165Z,5.27
2018-10-02T04:41:27.831Z,5.30
2018-10-02T04:42:28.659Z,5.31
2018-10-02T04:43:29.429Z,5.33
2018-10-02T04:44:28.551Z,5.36
2018-10-02T04:45:29.443Z,5.37
2018-10-02T04:46:29.691Z,5.39
2018-10-02T04:47:29.197Z,5.39
2018-10-02T04:48:30.112Z,5.41
2018-10-02T04:49:30.338Z,5.42
2018-10-02T04:50:29.715Z,5.44
2018-10-02T04:51:31.024Z,5.46
2018-10-02T04:52:31.458Z,5.47
2018-10-02T04:53:30.903Z,5.49
2018-10-02T04:54:31.880Z,5.49
2018-10-02T04:55:32.218Z,5.52
2018-10-02T04:56:31.605Z,5.53
2018-10-02T04:57:32.937Z,5.54
2018-10-02T04:58:33.375Z,5.55
2018-10-02T04:59:32.751Z,5.57
2018-10-02T05:00:34.406Z,5.61
2018-10-02T05:01:34.349Z,5.61
2018-10-02T05:02:34.053Z,5.66
2018-10-02T05:03:35.099Z,5.67
2018-10-02T05:04:35.054Z,5.69
2018-10-02T05:05:34.713Z,5.70
2018-10-02T05:06:36.005Z,5.72
2018-10-02T05:07:36.183Z,5.75
2018-10-02T05:08:36.035Z,5.78
2018-10-02T05:09:37.037Z,5.77
2018-10-02T05:10:37.061Z,5.81
2018-10-02T05:11:36.292Z,5.82
2018-10-02T05:12:37.127Z,5.84
2018-10-02T05:13:37.766Z,5.85
2018-10-02T05:14:36.607Z,5.87
2018-10-02T05:15:38.033Z,5.89
2018-10-02T05:16:38.547Z,5.91
2018-10-02T05:17:37.625Z,5.93
2018-10-02T05:18:38.647Z,5.96
2018-10-02T05:19:38.459Z,5.97
2018-10-02T05:20:38.099Z,5.99
2018-10-02T05:21:38.960Z,6.04
2018-10-02T05:22:39.447Z,6.07
2018-10-02T05:23:39.077Z,6.10
2018-10-02T05:24:40.113Z,6.11
2018-10-02T05:25:40.420Z,6.15
2018-10-02T05:26:39.955Z,6.17
2018-10-02T05:27:41.014Z,6.19
2018-10-02T05:28:40.720Z,6.23
2018-10-02T05:29:40.262Z,6.26
2018-10-02T05:30:41.293Z,6.28
2018-10-02T05:31:41.192Z,6.30
2018-10-02T05:32:40.486Z,6.33
2018-10-02T05:33:42.046Z,6.34
2018-10-02T05:34:42.229Z,6.37
2018-10-02T05:35:41.725Z,6.39
2018-10-02T05:36:43.107Z,6.40
2018-10-02T05:37:43.367Z,6.42
2018-10-02T05:38:42.763Z,6.44
2018-10-02T05:39:44.166Z,6.46
2018-10-02T05:40:44.558Z,6.48
2018-10-02T05:41:44.012Z,6.48
2018-10-02T05:42:45.303Z,6.49
2018-10-02T05:43:45.558Z,6.51
2018-10-02T05:44:45.005Z,6.51
2018-10-02T05:45:46.036Z,6.51
2018-10-02T05:46:46.405Z,6.52
2018-10-02T05:47:45.731Z,6.54
2018-10-02T05:48:46.814Z,6.54
2018-10-02T05:49:47.242Z,6.54
2018-10-02T05:50:46.812Z,6.56
2018-10-02T05:51:48.034Z,6.56
2018-10-02T05:52:48.295Z,6.58
2018-10-02T05:53:47.886Z,6.58
2018-10-02T05:54:48.661Z,6.61
2018-10-02T05:55:48.943Z,6.61
2018-10-02T05:56:48.537Z,6.62
2018-10-02T05:57:49.259Z,6.63
2018-10-02T05:58:49.702Z,6.64
2018-10-02T05:59:49.478Z,6.66
2018-10-02T06:00:50.157Z,6.66
2018-10-02T06:01:50.404Z,6.68
2018-10-02T06:02:49.904Z,6.69
2018-10-02T06:03:50.638Z,6.71
2018-10-02T06:04:50.973Z,6.74
2018-10-02T06:05:50.741Z,6.75
2018-10-02T06:06:51.634Z,6.75
2018-10-02T06:07:52.028Z,6.77
2018-10-02T06:08:51.339Z,6.78
2018-10-02T06:09:51.961Z,6.80
2018-10-02T06:10:52.266Z,6.81
2018-10-02T06:11:52.009Z,6.84
2018-10-02T06:12:52.819Z,6.86
2018-10-02T06:13:53.212Z,6.89
2018-10-02T06:14:52.843Z,6.92
2018-10-02T06:15:53.731Z,6.95
2018-10-02T06:16:53.827Z,6.98
2018-10-02T06:17:53.434Z,7.01
2018-10-02T06:18:54.222Z,7.04
2018-10-02T06:19:54.607Z,7.08
2018-10-02T06:20:54.340Z,7.12
2018-10-02T06:21:55.028Z,7.15
2018-10-02T06:22:55.113Z,7.18
2018-10-02T06:23:54.498Z,7.21
2018-10-02T06:24:55.815Z,7.24
2018-10-02T06:25:56.048Z,7.27
2018-10-02T06:26:55.415Z,7.30
2018-10-02T06:27:56.726Z,7.33
2018-10-02T06:28:56.978Z,7.36
2018-10-02T06:29:56.528Z,7.40
2018-10-02T06:30:57.162Z,7.43
2018-10-02T06:31:57.240Z,7.48
2018-10-02T06:32:56.721Z,7.52
2018-10-02T06:33:57.930Z,7.57
2018-10-02T06:34:58.195Z,7.73
2018-10-02T06:35:57.588Z,7.75
2018-10-02T06:36:59.678Z,7.77
2018-10-02T06:37:58.884Z,7.79
2018-10-02T06:38:58.340Z,7.83
2018-10-02T06:39:59.595Z,7.85
2018-10-02T06:40:59.704Z,7.88
2018-10-02T06:41:59.090Z,7.91
2018-10-02T06:43:00.139Z,7.93
2018-10-02T06:44:00.066Z,7.96
2018-10-02T06:44:59.902Z,7.99
2018-10-02T06:46:01.417Z,8.02
2018-10-02T06:47:00.790Z,8.06
2018-10-02T06:48:00.832Z,8.09
2018-10-02T06:49:01.611Z,8.11
2018-10-02T06:50:01.794Z,8.14
2018-10-02T06:51:01.272Z,8.16
2018-10-02T06:52:02.768Z,8.19
2018-10-02T06:53:02.670Z,8.22
2018-10-02T06:54:02.843Z,8.25
2018-10-02T06:55:03.717Z,8.28
2018-10-02T06:56:03.958Z,8.30
2018-10-02T06:57:04.459Z,8.34
2018-10-02T06:58:04.922Z,8.37
2018-10-02T06:59:04.740Z,8.39
2018-10-02T07:00:04.620Z,8.42
2018-10-02T07:01:05.512Z,8.44
2018-10-02T07:02:05.367Z,8.47
2018-10-02T07:03:05.647Z,8.49
2018-10-02T07:04:05.948Z,8.51
2018-10-02T07:05:06.179Z,8.60
2018-10-02T07:06:05.809Z,8.60
2018-10-02T07:07:06.211Z,8.65
2018-10-02T07:08:06.470Z,8.68
2018-10-02T07:09:06.972Z,8.68
2018-10-02T07:10:07.020Z,8.69
2018-10-02T07:11:06.896Z,8.70
2018-10-02T07:12:07.158Z,8.71
2018-10-02T07:13:07.584Z,8.72
2018-10-02T07:14:07.848Z,8.73
2018-10-02T07:15:08.328Z,8.74
2018-10-02T07:16:08.884Z,8.76
2018-10-02T07:17:08.847Z,8.82
2018-10-02T07:18:09.247Z,8.82
2018-10-02T07:19:09.501Z,8.82
2018-10-02T07:20:09.871Z,8.83
2018-10-02T07:21:10.034Z,8.83
2018-10-02T07:22:10.349Z,8.84
2018-10-02T07:23:10.750Z,8.86
2018-10-02T07:24:10.872Z,8.93
2018-10-02T07:25:11.330Z,8.96
2018-10-02T07:26:11.812Z,8.98
2018-10-02T07:27:12.622Z,8.98
2018-10-02T07:28:12.030Z,8.98
2018-10-02T07:29:12.273Z,8.99
2018-10-02T07:30:12.652Z,9.05
2018-10-02T07:31:12.830Z,9.06
2018-10-02T07:32:13.144Z,9.08
2018-10-02T07:33:13.151Z,9.10
2018-10-02T07:34:13.340Z,9.12
2018-10-02T07:35:13.989Z,9.14
2018-10-02T07:36:13.474Z,9.15
2018-10-02T07:38:14.203Z,9.15
2018-10-02T07:39:14.375Z,9.15
2018-10-02T07:40:15.213Z,9.15
2018-10-02T07:41:14.990Z,9.14
2018-10-02T07:42:15.015Z,9.14
2018-10-02T07:43:15.719Z,9.16
2018-10-02T07:44:16.067Z,9.17
2018-10-02T07:45:16.206Z,9.16
2018-10-02T07:46:16.466Z,9.16
2018-10-02T07:47:16.095Z,9.17
2018-10-02T07:48:16.733Z,9.17
2018-10-02T07:49:17.104Z,9.18
2018-10-02T07:50:17.606Z,9.20
2018-10-02T07:51:17.613Z,9.26
2018-10-02T07:52:17.843Z,9.26
2018-10-02T07:53:18.435Z,9.26
2018-10-02T07:54:18.292Z,9.24
2018-10-02T07:55:18.804Z,9.24
2018-10-02T07:56:18.680Z,9.25
2018-10-02T07:57:19.814Z,9.28
2018-10-02T07:58:19.731Z,9.29
2018-10-02T07:59:19.574Z,9.31
2018-10-02T08:00:20.618Z,9.44
2018-10-02T08:01:20.591Z,9.46
2018-10-02T08:03:21.065Z,9.47
2018-10-02T08:04:21.373Z,9.49
2018-10-02T08:05:21.138Z,9.52
2018-10-02T08:06:21.930Z,9.55
2018-10-02T08:07:22.373Z,9.68
2018-10-02T08:08:22.133Z,9.70
2018-10-02T08:09:23.054Z,9.72
2018-10-02T08:10:23.532Z,9.74
2018-10-02T08:11:22.928Z,9.75
2018-10-02T08:12:24.499Z,9.75
2018-10-02T08:13:24.684Z,9.75
2018-10-02T08:14:24.167Z,9.72
2018-10-02T08:15:25.007Z,9.71
2018-10-02T08:16:25.405Z,9.69
2018-10-02T08:17:25.771Z,9.67
2018-10-02T08:18:26.247Z,9.63
2018-10-02T08:19:26.511Z,9.61
2018-10-02T08:20:25.967Z,9.58
2018-10-02T08:21:27.207Z,9.55
2018-10-02T08:22:27.364Z,9.53
2018-10-02T08:23:26.714Z,9.50
2018-10-02T08:24:27.966Z,9.42
2018-10-02T08:25:28.138Z,9.42
2018-10-02T08:26:27.501Z,9.42
2018-10-02T08:27:29.168Z,9.41
2018-10-02T08:28:28.901Z,9.37
2018-10-02T08:29:28.590Z,9.36
2018-10-02T08:30:30.055Z,9.31
2018-10-02T08:31:29.284Z,9.28
2018-10-02T08:32:28.710Z,9.26
2018-10-02T08:33:30.097Z,9.26
2018-10-02T08:34:30.356Z,9.25
2018-10-02T08:35:29.676Z,9.24
2018-10-02T08:36:30.914Z,9.23
2018-10-02T08:37:31.265Z,9.22
2018-10-02T08:38:30.623Z,9.21
2018-10-02T08:39:31.848Z,9.21
2018-10-02T08:40:32.143Z,9.20
2018-10-02T08:41:31.623Z,9.20
2018-10-02T08:42:32.870Z,9.20
2018-10-02T08:43:33.325Z,9.20
2018-10-02T08:44:32.738Z,9.20
2018-10-02T08:45:34.025Z,9.22
2018-10-02T08:46:34.286Z,9.21
2018-10-02T08:47:33.357Z,9.22
2018-10-02T08:48:34.723Z,9.23
2018-10-02T08:50:34.518Z,9.24
2018-10-02T08:51:35.654Z,9.28
2018-10-02T08:52:35.484Z,9.33
2018-10-02T08:53:35.251Z,9.52
2018-10-02T08:54:36.042Z,9.53
2018-10-02T08:55:36.547Z,9.55
2018-10-02T08:56:35.720Z,9.58
2018-10-02T08:57:36.664Z,9.59
2018-10-02T08:58:37.119Z,9.61
2018-10-02T08:59:36.437Z,9.62
2018-10-02T09:00:37.908Z,9.63
2018-10-02T09:01:38.305Z,9.64
2018-10-02T09:02:37.876Z,9.64
2018-10-02T09:03:38.894Z,9.64
2018-10-02T09:04:38.900Z,9.64
2018-10-02T09:05:37.963Z,9.64
2018-10-02T09:06:39.037Z,9.64
2018-10-02T09:07:39.654Z,9.63
2018-10-02T09:08:38.834Z,9.62
2018-10-02T09:09:39.827Z,9.62
2018-10-02T09:10:40.202Z,9.62
2018-10-02T09:11:39.285Z,9.61
2018-10-02T09:12:40.362Z,9.59
2018-10-02T09:13:40.705Z,9.59
2018-10-02T09:14:40.000Z,9.58
2018-10-02T09:15:41.466Z,9.58
2018-10-02T09:16:41.766Z,9.55
2018-10-02T09:17:40.989Z,9.55
2018-10-02T09:18:42.324Z,9.54
2018-10-02T09:19:42.427Z,9.54
2018-10-02T09:20:41.726Z,9.54
2018-10-02T09:21:43.206Z,9.54
2018-10-02T09:22:43.237Z,9.54
2018-10-02T09:23:42.573Z,9.55
2018-10-02T09:24:43.860Z,9.58
2018-10-02T09:25:44.382Z,9.60
2018-10-02T09:26:43.318Z,9.60
2018-10-02T09:27:44.725Z,9.62
2018-10-02T09:28:44.943Z,9.59
2018-10-02T09:29:44.395Z,9.60
2018-10-02T09:30:45.308Z,9.60
2018-10-02T09:31:45.530Z,9.64
2018-10-02T09:32:45.042Z,9.64
2018-10-02T09:33:46.068Z,9.66
2018-10-02T09:34:46.451Z,9.67
2018-10-02T09:35:45.876Z,9.68
2018-10-02T09:36:47.280Z,9.70
2018-10-02T09:37:47.727Z,9.72
2018-10-02T09:38:47.377Z,9.74
2018-10-02T09:39:48.293Z,9.75
2018-10-02T09:40:48.800Z,9.76
2018-10-02T09:41:47.712Z,9.78
2018-10-02T09:42:49.023Z,9.78
2018-10-02T09:43:49.624Z,9.79
2018-10-02T09:44:48.918Z,9.81
2018-10-02T09:45:49.727Z,9.87
2018-10-02T09:46:49.863Z,9.87
2018-10-02T09:47:49.497Z,9.87
2018-10-02T09:48:50.339Z,9.87
2018-10-02T09:49:50.947Z,9.90
2018-10-02T09:50:50.089Z,9.92
2018-10-02T09:51:50.903Z,9.94
2018-10-02T09:52:51.233Z,9.94
2018-10-02T09:53:50.978Z,9.95
2018-10-02T09:54:51.786Z,9.95
2018-10-02T09:55:52.179Z,9.98
2018-10-02T09:56:51.809Z,9.98
2018-10-02T09:57:52.505Z,9.97
2018-10-02T09:58:52.707Z,9.98
2018-10-02T09:59:52.346Z,9.99
2018-10-02T10:00:53.157Z,9.99
2018-10-02T10:01:53.356Z,9.99
2018-10-02T10:02:53.138Z,10.03
2018-10-02T10:03:53.958Z,10.04
2018-10-02T10:04:54.516Z,10.04
2018-10-02T10:05:53.629Z,10.04
2018-10-02T10:06:54.429Z,10.06
2018-10-02T10:07:54.720Z,10.00
2018-10-02T10:08:54.255Z,10.05
2018-10-02T10:09:54.959Z,10.09
2018-10-02T10:10:55.181Z,10.11
2018-10-02T10:11:54.560Z,10.14
2018-10-02T10:12:55.745Z,10.31
2018-10-02T10:13:56.239Z,10.33
2018-10-02T10:14:55.641Z,10.45
2018-10-02T10:15:56.779Z,10.46
2018-10-02T10:16:56.815Z,10.47
2018-10-02T10:17:56.696Z,10.50
2018-10-02T10:18:57.889Z,10.53
2018-10-02T10:19:58.076Z,10.64
2018-10-02T10:20:57.533Z,10.64
2018-10-02T10:21:58.295Z,10.64
2018-10-02T10:22:58.363Z,10.68
2018-10-02T10:23:57.624Z,10.70
2018-10-02T10:24:58.915Z,10.69
2018-10-02T10:25:58.918Z,10.69
2018-10-02T10:26:58.728Z,10.71
2018-10-02T10:28:00.142Z,10.76
2018-10-02T10:29:00.441Z,10.79
2018-10-02T10:29:59.708Z,10.77
2018-10-02T10:31:01.431Z,10.62
2018-10-02T10:32:00.994Z,10.68
2018-10-02T10:33:00.527Z,10.68
2018-10-02T10:34:01.249Z,10.67
2018-10-02T10:35:01.427Z,10.67
2018-10-02T10:36:00.898Z,10.63
2018-10-02T10:37:02.073Z,10.61
2018-10-02T10:38:02.474Z,10.59
2018-10-02T10:39:01.767Z,10.53
2018-10-02T10:40:03.150Z,10.55
2018-10-02T10:41:03.395Z,10.52
2018-10-02T10:42:03.353Z,10.51
2018-10-02T10:43:03.740Z,10.50
2018-10-02T10:44:03.956Z,10.49
2018-10-02T10:45:03.496Z,10.48
2018-10-02T10:46:04.472Z,10.51
2018-10-02T10:47:04.803Z,10.49
2018-10-02T10:48:04.954Z,10.52
2018-10-02T10:49:05.438Z,10.55
2018-10-02T10:50:05.961Z,10.56
2018-10-02T10:51:05.680Z,10.57
2018-10-02T10:52:06.170Z,10.61
2018-10-02T10:53:06.592Z,10.60
2018-10-02T10:54:06.792Z,10.60
2018-10-02T10:55:07.135Z,10.66
2018-10-02T10:56:07.307Z,10.69
2018-10-02T10:57:07.535Z,10.66
2018-10-02T10:58:07.869Z,10.53
2018-10-02T10:59:08.470Z,10.54
2018-10-02T11:00:08.506Z,10.52
2018-10-02T11:01:09.072Z,10.53
2018-10-02T11:02:08.910Z,10.53
2018-10-02T11:03:09.203Z,10.52
2018-10-02T11:04:09.668Z,10.50
2018-10-02T11:05:10.045Z,10.42
2018-10-02T11:06:10.172Z,10.51
2018-10-02T11:07:10.690Z,10.45
2018-10-02T11:08:10.664Z,10.46
2018-10-02T11:09:10.963Z,10.53
2018-10-02T11:10:11.262Z,10.46
2018-10-02T11:11:11.741Z,10.46
2018-10-02T11:12:12.085Z,10.47
2018-10-02T11:13:12.373Z,10.46
2018-10-02T11:14:12.752Z,10.47
2018-10-02T11:15:12.964Z,10.50
2018-10-02T11:16:13.369Z,10.51
2018-10-02T11:17:13.715Z,10.51
2018-10-02T11:18:13.816Z,10.52
2018-10-02T11:19:14.047Z,10.51
2018-10-02T11:20:14.496Z,10.46
2018-10-02T11:21:15.322Z,10.42
2018-10-02T11:22:14.499Z,10.32
2018-10-02T11:23:14.707Z,10.39
2018-10-02T11:24:14.975Z,10.41
2018-10-02T11:25:15.224Z,10.37
2018-10-02T11:26:15.161Z,10.23
2018-10-02T11:27:15.718Z,10.14
2018-10-02T11:28:16.121Z,10.16
2018-10-02T11:29:15.909Z,10.17
2018-10-02T11:30:16.542Z,10.19
2018-10-02T11:31:16.773Z,10.19
2018-10-02T11:32:17.285Z,10.18
2018-10-02T11:33:16.938Z,10.06
2018-10-02T11:34:17.128Z,10.04
2018-10-02T11:35:17.484Z,10.05
2018-10-02T11:36:17.754Z,10.09
2018-10-02T11:37:18.184Z,10.04
2018-10-02T11:38:17.997Z,10.01
2018-10-02T11:39:18.963Z,9.87
2018-10-02T11:40:19.356Z,9.88
2018-10-02T11:41:19.882Z,9.84
2018-10-02T11:42:19.845Z,9.67
2018-10-02T11:43:20.287Z,9.66
2018-10-02T11:44:20.683Z,9.60
2018-10-02T11:45:20.730Z,9.56
2018-10-02T11:46:21.139Z,9.39
2018-10-02T11:47:21.480Z,9.31
2018-10-02T11:48:21.930Z,9.26
2018-10-02T11:49:22.369Z,9.21
2018-10-02T11:50:22.245Z,9.20
2018-10-02T11:51:23.204Z,9.14
2018-10-02T11:52:23.579Z,9.12
2018-10-02T11:53:23.177Z,9.12
2018-10-02T11:54:24.147Z,9.10
2018-10-02T11:55:24.699Z,9.04
2018-10-02T11:56:24.162Z,9.05
2018-10-02T11:57:25.245Z,9.03
2018-10-02T11:58:25.210Z,9.02
2018-10-02T12:00:25.789Z,9.04
2018-10-02T12:01:25.639Z,9.05
2018-10-02T12:02:25.074Z,9.02
2018-10-02T12:03:26.394Z,9.01
2018-10-02T12:04:26.566Z,9.01
2018-10-02T12:05:25.907Z,8.98
2018-10-02T12:06:27.178Z,8.99
2018-10-02T12:07:27.525Z,9.03
2018-10-02T12:08:26.814Z,9.00
2018-10-02T12:09:28.043Z,9.01
2018-10-02T12:10:28.382Z,9.02
2018-10-02T12:11:27.887Z,8.98
2018-10-02T12:12:29.127Z,9.03
2018-10-02T12:13:29.453Z,9.08
2018-10-02T12:14:29.157Z,9.11
2018-10-02T12:15:30.158Z,9.11
2018-10-02T12:16:30.452Z,9.11
2018-10-02T12:17:29.712Z,9.13
2018-10-02T12:18:30.561Z,9.11
2018-10-02T12:19:30.955Z,9.10
2018-10-02T12:20:30.252Z,9.08
2018-10-02T12:21:31.561Z,9.09
2018-10-02T12:22:31.790Z,9.10
2018-10-02T12:23:31.230Z,9.10
2018-10-02T12:24:32.551Z,9.10
2018-10-02T12:25:32.733Z,9.09
2018-10-02T12:26:32.265Z,9.09
2018-10-02T12:27:33.245Z,9.07
2018-10-02T12:28:33.698Z,9.06
2018-10-02T12:29:33.215Z,8.98
2018-10-02T12:30:34.051Z,9.02
2018-10-02T12:31:34.606Z,9.02
2018-10-02T12:32:33.743Z,9.03
2018-10-02T12:33:34.850Z,9.08
2018-10-02T12:34:34.701Z,9.11
2018-10-02T12:35:34.462Z,9.11
2018-10-02T12:36:35.390Z,9.11
2018-10-02T12:37:35.768Z,9.12
2018-10-02T12:38:35.531Z,9.13
2018-10-02T12:39:36.351Z,9.11
2018-10-02T12:40:36.585Z,9.12
2018-10-02T12:41:36.167Z,9.10
2018-10-02T12:42:37.084Z,9.10
2018-10-02T12:43:37.679Z,9.11
2018-10-02T12:44:36.859Z,9.12
2018-10-02T12:45:37.754Z,9.10
2018-10-02T12:46:38.240Z,9.07
2018-10-02T12:47:37.502Z,9.08
2018-10-02T12:48:38.446Z,9.09
2018-10-02T12:49:39.048Z,9.09
2018-10-02T12:51:38.991Z,9.02
2018-10-02T12:52:39.595Z,9.03
2018-10-02T12:53:39.013Z,9.04
2018-10-02T12:54:40.459Z,9.05
2018-10-02T12:55:40.382Z,9.04
2018-10-02T12:56:39.922Z,9.05
2018-10-02T12:57:40.751Z,9.08
2018-10-02T12:58:41.129Z,9.10
2018-10-02T12:59:40.420Z,9.04
2018-10-02T13:00:41.783Z,9.08
2018-10-02T13:01:42.073Z,9.09
2018-10-02T13:02:41.454Z,9.10
2018-10-02T13:03:42.850Z,9.17
2018-10-02T13:04:43.200Z,9.10
2018-10-02T13:05:42.560Z,9.10
2018-10-02T13:06:44.435Z,9.11
2018-10-02T13:07:44.505Z,9.12
2018-10-02T13:08:43.601Z,9.12
2018-10-02T13:09:44.736Z,9.15
2018-10-02T13:10:44.757Z,9.17
2018-10-02T13:11:43.695Z,9.17
2018-10-02T13:12:44.878Z,9.25
2018-10-02T13:13:45.476Z,9.25
2018-10-02T13:14:44.282Z,9.26
2018-10-02T13:15:45.422Z,9.25
2018-10-02T13:16:45.972Z,9.23
2018-10-02T13:17:45.416Z,9.24
2018-10-02T13:18:46.116Z,9.27
2018-10-02T13:19:46.444Z,9.28
2018-10-02T13:20:45.730Z,9.21
2018-10-02T13:21:46.818Z,9.22
2018-10-02T13:22:47.093Z,9.21
2018-10-02T13:23:46.458Z,9.20
2018-10-02T13:24:47.642Z,9.20
2018-10-02T13:25:47.907Z,9.21
2018-10-02T13:26:47.522Z,9.21
2018-10-02T13:27:48.237Z,9.20
2018-10-02T13:28:48.759Z,9.21